Time;durP1;ratioP1;P1;durP2;ratioP2;P2;SDS_P1;SDS_P2;PMS_P1;PMS_P2;Temp;Humidity;BMP_temperature;BMP_pressure;BME280_temperature;BME280_humidity;BME280_pressure;Samples;Min_cycle;Max_cycle;Signal;HPM_P1;HPM_P2
2021/10/05 00:00:20;;;;;;;;;2.00;2.00;;;;;24.28;41.96;100765.78;5074928;28;45472;-67
2021/10/05 00:02:46;;;;;;;;;1.00;1.00;;;;;24.28;42.03;100759.66;5076701;28;45425;-67
2021/10/05 00:05:11;;;;;;;;;2.00;1.00;;;;;24.33;42.38;100767.84;5074892;28;45684;-67
2021/10/05 00:07:36;;;;;;;;;1.75;1.75;;;;;24.34;42.31;100763.38;5074664;28;46124;-67
2021/10/05 00:10:04;;;;;;;;;2.75;1.50;;;;;24.33;42.02;100753.78;5074793;28;45459;-67
2021/10/05 00:12:29;;;;;;;;;1.00;1.00;;;;;24.33;42.07;100754.56;5075020;28;45545;-67
2021/10/05 00:14:55;;;;;;;;;2.00;1.00;;;;;24.33;42.44;100756.44;5076149;28;45358;-67
2021/10/05 00:17:21;;;;;;;;;1.00;1.00;;;;;24.32;41.93;100750.28;5074463;28;47283;-67
2021/10/05 00:19:46;;;;;;;;;1.25;1.00;;;;;24.22;42.46;100736.50;5068557;27;45607;-67
2021/10/05 00:22:14;;;;;;;;;2.00;1.00;;;;;24.32;42.41;100744.13;5074589;28;45398;-67
2021/10/05 00:24:39;;;;;;;;;1.00;1.00;;;;;24.32;42.48;100744.13;5074040;28;45577;-67
2021/10/05 00:27:05;;;;;;;;;1.00;1.00;;;;;24.31;42.33;100739.81;5076261;28;46068;-67
2021/10/05 00:29:30;;;;;;;;;2.00;2.00;;;;;24.30;42.04;100731.06;5054320;28;45365;-67
2021/10/05 00:31:55;;;;;;;;;0.00;0.00;;;;;24.29;42.39;100713.44;5074306;28;45420;-67
2021/10/05 00:34:21;;;;;;;;;3.00;1.25;;;;;24.29;42.41;100710.78;5074644;28;45447;-67
2021/10/05 00:36:46;;;;;;;;;1.50;1.00;;;;;24.27;42.28;100707.53;5074453;28;45558;-67
2021/10/05 00:39:11;;;;;;;;;0.00;0.00;;;;;24.29;41.88;100700.16;5075802;28;45288;-67
2021/10/05 00:41:37;;;;;;;;;1.00;1.00;;;;;24.29;42.22;100700.16;5074916;28;45543;-67
2021/10/05 00:44:03;;;;;;;;;1.00;1.00;;;;;24.28;42.08;100695.84;5073931;28;45370;-67
2021/10/05 00:46:29;;;;;;;;;1.25;0.75;;;;;24.27;41.97;100689.72;5074015;28;46181;-67
2021/10/05 00:48:55;;;;;;;;;1.00;1.00;;;;;24.26;42.22;100684.56;5073478;28;45456;-67
2021/10/05 00:51:22;;;;;;;;;2.75;1.00;;;;;24.23;42.24;100672.50;5074497;28;45372;-67
2021/10/05 00:53:48;;;;;;;;;1.00;1.00;;;;;24.27;41.95;100676.44;5073896;28;45331;-67
2021/10/05 00:56:13;;;;;;;;;1.00;1.00;;;;;23.81;42.11;100603.47;5073584;28;46433;-67
2021/10/05 00:58:39;;;;;;;;;2.00;0.67;;;;;24.27;42.14;100671.13;5073378;28;45486;-67
2021/10/05 01:01:04;;;;;;;;;2.25;1.00;;;;;24.26;42.06;100677.44;5073930;28;45265;-67
2021/10/05 01:03:30;;;;;;;;;0.33;0.00;;;;;24.17;41.91;100660.81;5074295;28;45398;-67
2021/10/05 01:05:55;;;;;;;;;1.00;1.00;;;;;24.27;42.20;100672.97;5075736;28;46189;-67
2021/10/05 01:08:21;;;;;;;;;1.00;1.00;;;;;24.26;41.73;100677.44;5072309;28;45381;-67
2021/10/05 01:10:46;;;;;;;;;4.00;1.33;;;;;24.26;42.30;100671.28;5073825;28;45942;-67
2021/10/05 01:13:12;;;;;;;;;2.00;1.00;;;;;24.26;41.99;100673.94;5073724;28;45379;-67
2021/10/05 01:15:37;;;;;;;;;2.00;2.00;;;;;24.22;42.13;100659.41;5074057;28;45390;-67
2021/10/05 01:18:02;;;;;;;;;3.33;1.00;;;;;24.26;41.75;100656.19;5071340;28;45395;-67
2021/10/05 01:20:28;;;;;;;;;2.33;0.33;;;;;24.22;42.02;100643.47;5073790;28;45426;-67
2021/10/05 01:22:53;;;;;;;;;3.00;1.33;;;;;24.26;42.23;100647.34;5073583;28;45477;-67
2021/10/05 01:25:19;;;;;;;;;4.00;1.00;;;;;24.25;42.03;100640.41;5073733;28;45485;-67
2021/10/05 01:27:51;;;;;;;;;2.00;0.00;;;;;24.26;42.04;100631.41;5073390;28;45506;-67
2021/10/05 01:30:19;;;;;;;;;0.33;0.00;;;;;24.26;42.11;100626.09;5073792;28;45325;-67
2021/10/05 01:32:45;;;;;;;;;1.67;0.00;;;;;24.26;42.09;100618.09;5075035;28;45386;-67
2021/10/05 01:35:11;;;;;;;;;2.00;1.00;;;;;24.24;42.07;100606.88;5073510;28;45505;-67
2021/10/05 01:37:37;;;;;;;;;0.50;0.50;;;;;24.25;42.00;100597.88;5073464;28;45342;-67
2021/10/05 01:40:08;;;;;;;;;0.00;0.00;;;;;24.25;42.01;100592.56;5073854;28;45380;-68
2021/10/05 01:42:33;;;;;;;;;1.25;0.00;;;;;24.24;42.30;100582.94;5073318;28;45422;-67
2021/10/05 01:44:59;;;;;;;;;1.00;1.00;;;;;24.24;42.06;100582.94;5074642;28;45374;-67
2021/10/05 01:47:24;;;;;;;;;3.33;1.00;;;;;24.23;41.90;100563.50;5071980;28;45491;-67
2021/10/05 01:49:50;;;;;;;;;0.00;0.00;;;;;24.23;42.08;100560.84;5073534;28;45376;-67
2021/10/05 01:52:16;;;;;;;;;2.00;1.00;;;;;24.22;42.14;100564.53;5069188;28;45462;-67
2021/10/05 01:54:41;;;;;;;;;0.67;0.67;;;;;24.22;41.84;100547.78;5073222;28;46362;-67
2021/10/05 01:57:06;;;;;;;;;1.00;1.00;;;;;24.12;42.24;100537.53;5074984;28;45302;-67
2021/10/05 01:59:32;;;;;;;;;2.00;0.67;;;;;24.13;42.37;100531.19;5071783;28;45464;-67
2021/10/05 02:01:57;;;;;;;;;1.67;1.00;;;;;24.21;42.14;100538.97;5074696;27;45460;-67
2021/10/05 02:04:22;;;;;;;;;3.00;1.00;;;;;24.18;42.21;100528.75;5076703;28;45359;-67
2021/10/05 02:06:48;;;;;;;;;0.00;0.00;;;;;24.12;41.80;100516.28;5076790;28;45475;-67
2021/10/05 02:09:13;;;;;;;;;0.00;0.00;;;;;24.19;42.27;100522.41;5078287;28;45233;-67
2021/10/05 02:11:39;;;;;;;;;1.67;1.00;;;;;24.19;41.92;100517.09;5077141;28;45276;-67
2021/10/05 02:14:06;;;;;;;;;0.00;0.00;;;;;24.20;42.20;100507.28;5076609;28;45990;-67
2021/10/05 02:16:32;;;;;;;;;2.00;1.00;;;;;24.21;42.10;100500.94;5076520;28;45390;-67
2021/10/05 02:18:59;;;;;;;;;2.67;0.00;;;;;24.15;41.89;100474.16;5076441;28;45499;-67
2021/10/05 02:21:25;;;;;;;;;1.00;1.00;;;;;24.20;42.11;100470.06;5076763;28;45347;-67
2021/10/05 02:26:35;;;;;;;;;0.67;0.67;;;;;24.21;41.72;100471.69;5076922;28;45396;-67
2021/10/05 02:29:01;;;;;;;;;1.67;0.67;;;;;24.21;42.02;100463.72;5076434;28;45485;-67
2021/10/05 02:31:27;;;;;;;;;1.00;0.00;;;;;24.21;42.32;100453.91;5076256;28;45404;-67
2021/10/05 02:33:52;;;;;;;;;1.00;1.00;;;;;24.21;41.97;100445.13;5076379;28;45599;-67
2021/10/05 02:36:18;;;;;;;;;1.00;0.00;;;;;24.20;41.81;100430.22;5077126;28;45515;-67
2021/10/05 02:38:43;;;;;;;;;1.75;0.00;;;;;24.20;42.12;100427.56;5076545;28;45297;-67
2021/10/05 02:41:09;;;;;;;;;1.00;1.00;;;;;24.17;42.39;100404.84;5067089;27;45417;-67
2021/10/05 02:43:34;;;;;;;;;1.33;0.33;;;;;24.17;42.17;100397.69;5075937;28;45223;-67
2021/10/05 02:45:59;;;;;;;;;0.00;0.00;;;;;24.19;41.96;100405.47;5076429;28;45279;-67
2021/10/05 02:48:25;;;;;;;;;0.00;0.00;;;;;24.19;42.47;100386.84;5076554;28;45547;-67
2021/10/05 02:50:51;;;;;;;;;1.00;1.00;;;;;24.18;41.86;100383.38;5078009;28;45497;-67
2021/10/05 02:53:16;;;;;;;;;2.00;0.00;;;;;24.10;41.71;100364.19;5075678;28;46052;-67
2021/10/05 02:55:41;;;;;;;;;0.00;0.00;;;;;24.19;41.79;100362.94;5076057;28;45679;-66
2021/10/05 02:58:07;;;;;;;;;1.00;1.00;;;;;24.15;42.40;100365.19;5076114;28;45447;-67
2021/10/05 03:00:34;;;;;;;;;0.00;0.00;;;;;24.19;42.20;100357.63;5076034;28;45352;-67
2021/10/05 03:02:59;;;;;;;;;1.00;1.00;;;;;24.16;41.60;100345.56;5077671;28;47040;-67
2021/10/05 03:05:26;;;;;;;;;0.00;0.00;;;;;24.18;41.60;100348.00;5074099;28;45453;-67
2021/10/05 03:07:51;;;;;;;;;0.00;0.00;;;;;23.71;41.99;100279.78;5075225;28;45454;-67
2021/10/05 03:10:17;;;;;;;;;1.00;0.00;;;;;24.13;41.77;100348.63;5075929;28;45472;-67
2021/10/05 03:12:42;;;;;;;;;0.33;0.33;;;;;24.18;42.27;100337.38;5075192;28;45560;-67
2021/10/05 03:15:08;;;;;;;;;0.67;0.33;;;;;24.17;42.34;100347.19;5077566;28;45388;-67
2021/10/05 03:17:33;;;;;;;;;1.00;1.00;;;;;24.06;42.09;100313.28;5075827;28;45558;-67
2021/10/05 03:19:58;;;;;;;;;2.00;0.33;;;;;24.16;42.36;100328.78;5075633;28;45293;-67
2021/10/05 03:22:24;;;;;;;;;3.00;0.00;;;;;24.15;42.27;100313.84;5074263;28;45383;-67
2021/10/05 03:24:49;;;;;;;;;1.00;1.00;;;;;24.14;41.99;100329.00;5075566;28;45336;-67
2021/10/05 03:27:14;;;;;;;;;0.00;0.00;;;;;24.13;41.82;100310.59;5076929;28;45416;-67
2021/10/05 03:29:40;;;;;;;;;1.67;0.00;;;;;24.05;42.13;100290.38;5076447;28;45372;-67
2021/10/05 03:32:06;;;;;;;;;0.33;0.00;;;;;24.14;42.21;100297.13;5075284;28;46003;-67
2021/10/05 03:34:31;;;;;;;;;0.00;0.00;;;;;24.07;42.25;100285.69;5075302;28;45417;-67
2021/10/05 03:36:57;;;;;;;;;0.50;0.00;;;;;24.13;41.99;100278.69;5075239;28;45349;-67
2021/10/05 03:39:22;;;;;;;;;0.00;0.00;;;;;24.14;41.73;100283.00;5075586;28;45358;-67
2021/10/05 03:41:48;;;;;;;;;0.00;0.00;;;;;24.12;42.09;100277.09;5076821;28;46395;-67
2021/10/05 03:44:13;;;;;;;;;2.00;0.33;;;;;24.08;42.45;100255.41;5073702;28;45546;-67
2021/10/05 03:46:38;;;;;;;;;1.33;1.33;;;;;24.12;42.16;100254.00;5075263;28;45484;-67
2021/10/05 03:49:04;;;;;;;;;0.67;0.00;;;;;24.14;42.03;100253.78;5075156;28;45462;-67
2021/10/05 03:51:29;;;;;;;;;0.75;0.00;;;;;24.08;41.92;100231.50;5074805;28;46173;-67
2021/10/05 03:53:54;;;;;;;;;1.00;1.00;;;;;24.14;41.92;100233.34;5058592;28;47202;-67
2021/10/05 03:56:20;;;;;;;;;1.25;1.00;;;;;24.13;41.63;100242.31;5075146;28;45399;-67
2021/10/05 03:58:45;;;;;;;;;2.00;0.00;;;;;24.12;41.68;100237.22;5075048;28;45401;-67
2021/10/05 04:01:10;;;;;;;;;0.00;0.00;;;;;24.15;41.83;100239.44;5054902;28;47994;-67
2021/10/05 04:03:38;;;;;;;;;2.25;1.00;;;;;24.14;42.27;100232.50;5075172;28;45530;-67
2021/10/05 04:06:04;;;;;;;;;0.00;0.00;;;;;24.14;42.22;100221.88;5071797;28;45341;-67
2021/10/05 04:08:29;;;;;;;;;0.33;0.33;;;;;24.15;41.66;100221.66;5074581;28;45258;-67
2021/10/05 04:10:55;;;;;;;;;0.00;0.00;;;;;24.14;42.12;100209.41;5074443;28;46125;-67
2021/10/05 04:13:20;;;;;;;;;0.00;0.00;;;;;24.15;41.61;100204.88;5074593;28;45284;-67
2021/10/05 04:15:45;;;;;;;;;0.00;0.00;;;;;24.12;42.08;100203.50;5075020;28;45356;-67
2021/10/05 04:18:11;;;;;;;;;0.00;0.00;;;;;24.15;41.99;100187.09;5076303;28;45369;-67
2021/10/05 04:20:36;;;;;;;;;2.00;0.00;;;;;24.14;41.59;100188.16;5074760;28;45351;-67
2021/10/05 04:23:02;;;;;;;;;1.67;1.67;;;;;24.15;41.99;100167.69;5073107;28;45517;-67
2021/10/05 04:25:27;;;;;;;;;0.00;0.00;;;;;24.14;41.59;100161.56;5073679;28;45537;-66
2021/10/05 04:27:52;;;;;;;;;0.00;0.00;;;;;24.14;41.74;100152.78;5074763;28;45424;-67
2021/10/05 04:30:20;;;;;;;;;0.00;0.00;;;;;24.13;42.26;100149.31;5075346;28;45423;-67
2021/10/05 04:32:46;;;;;;;;;0.00;0.00;;;;;24.10;41.73;100139.09;5076108;28;45369;-66
2021/10/05 04:35:11;;;;;;;;;0.00;0.00;;;;;24.12;41.91;100145.03;5074139;28;45467;-67
2021/10/05 04:37:37;;;;;;;;;0.00;0.00;;;;;24.12;41.63;100133.59;5074473;28;45423;-67
2021/10/05 04:40:04;;;;;;;;;0.00;0.00;;;;;24.11;41.71;100130.09;5074438;28;45433;-67
2021/10/05 04:42:30;;;;;;;;;0.00;0.00;;;;;24.05;41.85;100129.09;5073664;28;45398;-67
2021/10/05 04:44:55;;;;;;;;;0.00;0.00;;;;;24.10;41.99;100128.47;5075048;28;45833;-67
2021/10/05 04:47:21;;;;;;;;;0.00;0.00;;;;;24.12;41.72;100130.91;5074453;28;45522;-67
2021/10/05 04:49:46;;;;;;;;;2.00;1.00;;;;;24.09;41.74;100129.50;5073772;28;46239;-67
2021/10/05 04:52:11;;;;;;;;;3.00;0.00;;;;;24.11;41.60;100130.09;5073892;28;45449;-67
2021/10/05 04:54:37;;;;;;;;;0.67;0.00;;;;;24.10;41.77;100123.16;5056748;28;45321;-67
2021/10/05 04:57:02;;;;;;;;;0.00;0.00;;;;;24.11;41.69;100123.97;5075948;28;45309;-67
2021/10/05 04:59:29;;;;;;;;;1.00;1.00;;;;;24.10;42.05;100115.16;5073875;28;47645;-67
2021/10/05 05:01:54;;;;;;;;;0.00;0.00;;;;;24.10;41.81;100106.41;5072263;28;45428;-67
2021/10/05 05:04:19;;;;;;;;;1.00;1.00;;;;;24.06;41.98;100101.50;5073462;28;45364;-67
2021/10/05 05:06:45;;;;;;;;;0.33;0.33;;;;;24.09;41.77;100092.31;5074108;28;45363;-67
2021/10/05 05:09:10;;;;;;;;;0.33;0.33;;;;;24.09;42.42;100086.97;5075334;28;47143;-67
2021/10/05 05:11:36;;;;;;;;;0.33;0.33;;;;;24.09;42.03;100094.97;5074322;28;45479;-67
2021/10/05 05:14:09;;;;;;;;;0.33;0.33;;;;;24.07;41.60;100084.53;5073909;28;45534;-67
2021/10/05 05:16:35;;;;;;;;;3.67;2.00;;;;;24.08;41.91;100085.34;5072890;28;45582;-67
2021/10/05 05:19:01;;;;;;;;;0.00;0.00;;;;;24.03;42.06;100072.69;5073209;28;46249;-67
2021/10/05 05:21:27;;;;;;;;;1.33;0.00;;;;;24.05;41.65;100054.69;5073705;28;45495;-67
2021/10/05 05:23:52;;;;;;;;;2.00;0.00;;;;;24.03;42.15;100047.97;5070682;28;45400;-67
2021/10/05 05:26:17;;;;;;;;;0.67;0.00;;;;;23.97;42.04;100041.66;5070062;28;45612;-67
2021/10/05 05:28:43;;;;;;;;;2.00;0.00;;;;;24.08;41.99;100053.47;5072565;28;46235;-67
2021/10/05 05:31:08;;;;;;;;;0.00;0.00;;;;;24.09;42.24;100049.78;5073600;28;45372;-65
2021/10/05 05:33:33;;;;;;;;;0.00;0.00;;;;;24.09;42.17;100036.50;5073443;28;45416;-65
2021/10/05 05:35:59;;;;;;;;;0.00;0.00;;;;;24.09;42.31;100027.69;5075944;28;45479;-65
2021/10/05 05:38:26;;;;;;;;;0.00;0.00;;;;;24.07;42.13;100027.94;5076764;28;46174;-65
2021/10/05 05:40:53;;;;;;;;;0.00;0.00;;;;;24.11;42.24;100038.94;5076729;28;45518;-65
2021/10/05 05:43:18;;;;;;;;;1.33;0.00;;;;;24.07;42.03;100025.28;5077078;27;45388;-65
2021/10/05 05:45:44;;;;;;;;;1.67;0.00;;;;;24.12;42.36;100029.94;5076488;28;45407;-65
2021/10/05 05:48:09;;;;;;;;;1.33;0.00;;;;;24.13;42.42;100015.59;5077935;28;47003;-65
2021/10/05 05:50:34;;;;;;;;;0.00;0.00;;;;;24.11;42.25;100010.53;5077130;28;45351;-65
2021/10/05 05:53:00;;;;;;;;;0.00;0.00;;;;;24.11;42.12;100018.50;5077674;28;45454;-65
2021/10/05 05:55:25;;;;;;;;;1.00;0.00;;;;;24.12;42.77;100009.50;5076685;28;45642;-65
2021/10/05 05:57:51;;;;;;;;;0.67;0.00;;;;;24.13;42.30;99999.66;5075940;28;45446;-65
2021/10/05 06:00:18;;;;;;;;;0.33;0.33;;;;;23.98;42.22;99976.88;5077177;27;45522;-65
2021/10/05 06:02:44;;;;;;;;;0.00;0.00;;;;;24.12;42.84;100014.81;5076230;28;45352;-66
2021/10/05 06:05:09;;;;;;;;;0.00;0.00;;;;;24.12;42.84;100004.19;5076003;28;45273;-65
2021/10/05 06:07:35;;;;;;;;;1.67;0.33;;;;;24.13;42.33;100013.75;5075588;28;46131;-67
2021/10/05 06:10:00;;;;;;;;;1.67;0.33;;;;;24.14;42.54;100014.59;5074702;28;45316;-65
2021/10/05 06:12:36;;;;;;;;;0.00;0.00;;;;;24.12;42.83;100024.63;5076642;28;45567;-68
2021/10/05 06:15:03;;;;;;;;;0.67;0.00;;;;;24.13;42.88;100032.38;5078211;28;45385;-68
2021/10/05 06:17:29;;;;;;;;;0.00;0.00;;;;;24.13;42.49;100035.03;5076022;28;47514;-68
2021/10/05 06:19:54;;;;;;;;;0.67;0.00;;;;;24.14;42.61;100035.84;5074704;28;45524;-67
2021/10/05 06:22:19;;;;;;;;;0.00;0.00;;;;;24.08;42.75;100018.91;5076485;28;45296;-67
2021/10/05 06:24:45;;;;;;;;;2.00;0.67;;;;;24.14;42.73;100017.25;5076572;28;45290;-68
2021/10/05 06:27:10;;;;;;;;;0.00;0.00;;;;;24.14;42.28;100014.59;5077517;28;54491;-68
2021/10/05 06:29:35;;;;;;;;;2.00;0.00;;;;;24.13;42.69;100015.59;5076324;28;45402;-67
2021/10/05 06:32:01;;;;;;;;;0.33;0.33;;;;;24.02;42.71;100009.16;5076122;28;45373;-68
2021/10/05 06:34:27;;;;;;;;;1.00;1.00;;;;;24.12;42.53;100014.00;5076399;28;45439;-67
2021/10/05 06:36:52;;;;;;;;;0.67;0.00;;;;;24.12;42.81;100025.44;5076112;28;46447;-68
2021/10/05 06:39:17;;;;;;;;;2.00;1.00;;;;;24.12;42.95;100030.75;5077056;28;45542;-67
2021/10/05 06:41:43;;;;;;;;;1.00;0.00;;;;;24.07;42.87;100019.97;5077498;28;45450;-67
2021/10/05 06:44:08;;;;;;;;;0.00;0.00;;;;;24.10;42.89;100022.16;5076342;28;47309;-68
2021/10/05 06:46:34;;;;;;;;;0.00;0.00;;;;;24.11;42.80;100025.63;5075208;28;47101;-67
2021/10/05 06:48:59;;;;;;;;;0.00;0.00;;;;;24.11;42.36;100013.19;5075805;28;45439;-67
2021/10/05 06:51:24;;;;;;;;;0.00;0.00;;;;;24.12;42.50;100014.00;5076262;28;45360;-67
2021/10/05 06:53:50;;;;;;;;;0.00;0.00;;;;;24.11;42.32;100018.50;5078027;28;45272;-67
2021/10/05 06:56:15;;;;;;;;;1.00;0.00;;;;;24.10;42.74;100011.53;5075914;28;45608;-67
2021/10/05 06:58:40;;;;;;;;;0.00;0.00;;;;;24.12;42.52;100048.53;5074294;28;45388;-68
2021/10/05 07:01:06;;;;;;;;;0.00;0.00;;;;;24.11;42.22;100078.78;5075387;28;45474;-68
2021/10/05 07:03:31;;;;;;;;;0.00;0.00;;;;;24.12;42.58;100091.06;5057275;28;45812;-68
2021/10/05 07:05:56;;;;;;;;;0.00;0.00;;;;;24.12;42.90;100088.41;5076651;28;47003;-67
2021/10/05 07:08:22;;;;;;;;;1.00;1.00;;;;;23.99;42.70;100082.13;5075648;28;45574;-67
2021/10/05 07:10:47;;;;;;;;;0.00;0.00;;;;;24.12;42.21;100099.84;5075831;28;45514;-68
2021/10/05 07:13:13;;;;;;;;;0.33;0.00;;;;;24.12;42.74;100104.34;5075707;28;45333;-67
2021/10/05 07:15:38;;;;;;;;;0.00;0.00;;;;;24.07;42.19;100110.31;5075433;28;46900;-67
2021/10/05 07:18:04;;;;;;;;;0.00;0.00;;;;;24.03;42.51;100101.09;5073047;28;45428;-67
2021/10/05 07:20:31;;;;;;;;;1.00;0.00;;;;;24.05;42.41;100105.19;5074967;28;45452;-67
2021/10/05 07:22:58;;;;;;;;;2.33;0.00;;;;;24.02;42.41;100089.66;5075410;28;45455;-67
2021/10/05 07:25:24;;;;;;;;;0.33;0.33;;;;;24.13;42.45;100104.13;5058127;28;47161;-67
2021/10/05 07:27:52;;;;;;;;;3.00;0.00;;;;;24.13;42.87;100105.97;5075561;28;45446;-66
2021/10/05 07:30:25;;;;;;;;;0.00;0.00;;;;;24.14;42.29;100116.41;5076108;28;45368;-68
2021/10/05 07:32:56;;;;;;;;;0.33;0.00;;;;;24.12;42.42;100123.78;5075483;28;45213;-68
2021/10/05 07:35:22;;;;;;;;;0.00;0.00;;;;;24.04;42.48;100110.72;5075111;28;46875;-67
2021/10/05 07:37:47;;;;;;;;;2.00;0.00;;;;;24.15;42.57;100130.47;5073523;28;45497;-68
2021/10/05 07:40:16;;;;;;;;;0.00;0.00;;;;;24.14;42.76;100127.03;5075246;28;45352;-68
2021/10/05 07:42:42;;;;;;;;;1.00;0.00;;;;;24.13;42.44;100122.72;5075508;28;45405;-68
2021/10/05 07:45:08;;;;;;;;;0.00;0.00;;;;;24.05;42.75;100104.38;5076400;28;45580;-68
2021/10/05 07:47:34;;;;;;;;;0.00;0.00;;;;;24.15;42.20;100123.31;5075300;28;45527;-68
2021/10/05 07:49:59;;;;;;;;;0.67;0.00;;;;;24.14;42.45;100139.50;5075284;28;45447;-68
2021/10/05 07:52:24;;;;;;;;;0.00;0.00;;;;;24.15;42.60;100149.06;5075085;28;45459;-68
2021/10/05 07:54:50;;;;;;;;;2.00;1.00;;;;;24.15;42.32;100151.72;5075048;28;46787;-67
2021/10/05 07:57:15;;;;;;;;;0.00;0.00;;;;;24.14;42.83;100152.78;5076168;28;45395;-67
2021/10/05 07:59:40;;;;;;;;;0.67;0.00;;;;;24.15;42.42;100157.88;5075254;28;45403;-68
2021/10/05 08:02:06;;;;;;;;;1.50;0.00;;;;;24.00;42.50;100128.09;5074902;28;45430;-68
2021/10/05 08:04:31;;;;;;;;;0.67;0.00;;;;;24.15;42.36;100160.53;5073653;28;47103;-68
2021/10/05 08:06:57;;;;;;;;;0.00;0.00;;;;;24.13;42.91;100157.28;5074761;28;45258;-68
2021/10/05 08:09:22;;;;;;;;;1.00;1.00;;;;;24.11;42.60;100156.69;5075299;28;45851;-68
2021/10/05 08:11:47;;;;;;;;;0.00;0.00;;;;;24.14;42.63;100160.75;5076653;28;45289;-68
2021/10/05 08:14:13;;;;;;;;;0.00;0.00;;;;;24.13;42.45;100157.28;5057295;28;47276;-68
2021/10/05 08:16:38;;;;;;;;;0.00;0.00;;;;;24.05;42.77;100141.56;5073281;28;45545;-68
2021/10/05 08:19:04;;;;;;;;;0.00;0.00;;;;;24.14;42.52;100160.75;5074684;27;45559;-68
2021/10/05 08:21:30;;;;;;;;;1.67;0.00;;;;;24.13;42.76;100161.78;5074754;28;45556;-68
2021/10/05 08:23:55;;;;;;;;;0.00;0.00;;;;;24.13;42.72;100162.59;5076378;28;47057;-68
2021/10/05 08:26:22;;;;;;;;;0.33;0.33;;;;;24.04;42.40;100167.34;5074544;28;45432;-68
2021/10/05 08:28:47;;;;;;;;;1.00;1.00;;;;;24.13;42.35;100172.41;5074408;28;46316;-68
2021/10/05 08:31:13;;;;;;;;;1.33;1.00;;;;;24.12;42.68;100182.25;5074731;28;46099;-68
2021/10/05 08:33:38;;;;;;;;;0.00;0.00;;;;;24.12;42.73;100187.56;5074649;28;45402;-68
2021/10/05 08:36:04;;;;;;;;;1.00;0.00;;;;;24.13;42.61;100188.34;5076726;28;45489;-67
2021/10/05 08:38:30;;;;;;;;;0.00;0.00;;;;;24.12;42.67;100198.19;5074450;28;45368;-68
2021/10/05 08:40:56;;;;;;;;;0.33;0.00;;;;;24.13;42.73;100191.00;5074459;28;45439;-68
2021/10/05 08:43:23;;;;;;;;;0.00;0.00;;;;;24.11;42.85;100193.06;5074007;28;46035;-68
2021/10/05 08:45:48;;;;;;;;;0.67;0.67;;;;;23.99;42.81;100169.81;5074245;28;45386;-68
2021/10/05 08:48:15;;;;;;;;;1.00;0.00;;;;;24.12;42.74;100200.00;5075791;28;45387;-68
2021/10/05 08:50:41;;;;;;;;;1.00;0.00;;;;;24.12;42.84;100208.81;5075106;28;45499;-68
2021/10/05 08:53:06;;;;;;;;;0.00;0.00;;;;;24.12;42.65;100208.00;5073870;28;46123;-68
2021/10/05 08:55:32;;;;;;;;;0.00;0.00;;;;;24.14;42.67;100219.22;5072454;28;45476;-68
2021/10/05 08:57:57;;;;;;;;;0.67;0.67;;;;;24.11;42.29;100212.47;5073876;28;45408;-68
2021/10/05 09:00:28;;;;;;;;;0.00;0.00;;;;;24.14;42.37;100222.69;5074179;28;45355;-68
2021/10/05 09:02:54;;;;;;;;;2.33;1.00;;;;;24.14;42.62;100225.34;5075744;28;47022;-68
2021/10/05 09:05:21;;;;;;;;;0.00;0.00;;;;;24.14;42.27;100219.22;5073951;28;45224;-68
2021/10/05 09:07:49;;;;;;;;;0.00;0.00;;;;;24.16;42.47;100222.47;5073989;28;45553;-68
2021/10/05 09:10:18;;;;;;;;;0.00;0.00;;;;;24.18;42.34;100218.59;5072954;28;45370;-68
2021/10/05 09:12:43;;;;;;;;;2.00;0.00;;;;;24.20;42.74;100220.22;5073835;28;45509;-68
2021/10/05 09:15:11;;;;;;;;;1.00;0.00;;;;;24.25;42.31;100223.06;5075273;28;45390;-66
2021/10/05 09:17:38;;;;;;;;;0.67;0.00;;;;;24.26;42.45;100224.69;5072732;28;45318;-68
2021/10/05 09:20:16;;;;;;;;;0.00;0.00;;;;;24.18;42.68;100210.63;5073675;28;45451;-68
2021/10/05 09:22:42;;;;;;;;;0.00;0.00;;;;;24.23;42.59;100223.25;5073530;28;46943;-68
2021/10/05 09:25:10;;;;;;;;;0.00;0.00;;;;;24.32;42.07;100237.19;5073515;28;45472;-67
2021/10/05 09:27:47;;;;;;;;;0.00;0.00;;;;;24.27;42.25;100231.69;5056602;28;45367;-68
2021/10/05 09:30:17;;;;;;;;;2.33;0.00;;;;;24.37;42.27;100249.84;5071746;28;45471;-67
2021/10/05 09:32:43;;;;;;;;;0.00;0.00;;;;;24.28;42.50;100225.31;5074644;28;45578;-67
2021/10/05 09:35:08;;;;;;;;;0.00;0.00;;;;;24.38;42.50;100249.59;5071946;28;45466;-68
2021/10/05 09:37:35;;;;;;;;;1.00;0.00;;;;;24.38;42.31;100254.94;5073760;28;45499;-68
2021/10/05 09:40:03;;;;;;;;;0.00;0.00;;;;;24.39;41.76;100261.88;5073424;28;45542;-68
2021/10/05 09:42:37;;;;;;;;;1.67;0.00;;;;;24.39;42.33;100256.56;5073662;28;45481;-68
2021/10/05 09:45:15;;;;;;;;;0.00;0.00;;;;;24.35;41.98;100259.88;5075217;28;45415;-68
2021/10/05 09:47:42;;;;;;;;;1.67;1.00;;;;;24.39;42.60;100269.88;5056276;28;45478;-68
2021/10/05 09:50:15;;;;;;;;;0.00;0.00;;;;;24.39;42.67;100280.50;5073223;28;45407;-68
2021/10/05 09:53:03;;;;;;;;;0.33;0.33;;;;;24.38;42.78;100272.75;5073366;28;46318;-68
2021/10/05 09:55:30;;;;;;;;;0.33;0.33;;;;;24.32;42.30;100269.09;5055769;28;45455;-68
2021/10/05 09:57:56;;;;;;;;;0.00;0.00;;;;;24.35;42.22;100300.56;5073323;28;45340;-68
2021/10/05 10:00:25;;;;;;;;;0.33;0.00;;;;;24.36;42.40;100301.38;5073517;28;45346;-69
2021/10/05 10:02:51;;;;;;;;;2.00;0.00;;;;;24.34;42.23;100306.91;5073216;28;45401;-68
2021/10/05 10:05:27;;;;;;;;;0.00;0.00;;;;;24.34;42.65;100317.53;5073242;28;45271;-68
2021/10/05 10:07:55;;;;;;;;;1.00;0.00;;;;;24.34;42.32;100316.72;5073045;28;45374;-68
2021/10/05 10:10:26;;;;;;;;;0.00;0.00;;;;;24.34;42.26;100324.69;5072878;28;45280;-68
2021/10/05 10:13:04;;;;;;;;;0.00;0.00;;;;;24.33;42.17;100331.84;5071588;28;46911;-68
2021/10/05 10:15:43;;;;;;;;;0.00;0.00;;;;;24.34;42.54;100322.03;5073108;28;45539;-68
2021/10/05 10:18:19;;;;;;;;;0.00;0.00;;;;;24.33;42.75;100326.53;5071324;28;45536;-68
2021/10/05 10:21:08;;;;;;;;;1.00;0.00;;;;;24.34;42.00;100338.81;5074314;28;45312;-68
2021/10/05 10:23:36;;;;;;;;;1.33;0.00;;;;;24.34;42.13;100333.47;5073353;28;47440;-68
2021/10/05 10:26:15;;;;;;;;;0.00;0.00;;;;;24.34;42.50;100333.47;5076241;28;45325;-68
2021/10/05 10:28:42;;;;;;;;;0.00;0.00;;;;;24.35;42.59;100342.28;5076632;28;45364;-68
2021/10/05 10:31:13;;;;;;;;;0.00;0.00;;;;;24.27;42.46;100335.34;5076576;28;45309;-68
2021/10/05 10:33:50;;;;;;;;;2.00;0.00;;;;;24.34;42.26;100354.75;5060301;28;46406;-68
2021/10/05 10:36:31;;;;;;;;;0.00;0.00;;;;;24.35;42.62;100358.22;5077743;28;45473;-68
2021/10/05 10:39:09;;;;;;;;;0.00;0.00;;;;;24.28;42.19;100363.53;5077018;28;45545;-68
2021/10/05 10:41:41;;;;;;;;;0.67;0.67;;;;;24.35;42.36;100380.31;5076691;28;45801;-68
2021/10/05 10:44:10;;;;;;;;;0.00;0.00;;;;;24.35;42.33;100382.16;5076005;28;46121;-68
2021/10/05 10:46:38;;;;;;;;;0.00;0.00;;;;;24.35;42.53;100388.31;5076013;28;45482;-68
2021/10/05 10:49:16;;;;;;;;;1.67;0.00;;;;;24.32;42.32;100383.41;5076236;28;45607;-68
2021/10/05 10:51:44;;;;;;;;;0.00;0.00;;;;;24.35;42.43;100400.78;5060086;28;45374;-68
2021/10/05 10:54:15;;;;;;;;;0.00;0.00;;;;;24.36;42.22;100391.75;5077356;28;47160;-68
2021/10/05 10:56:43;;;;;;;;;2.00;0.33;;;;;24.35;42.24;100398.94;5076355;28;45411;-68
2021/10/05 10:59:13;;;;;;;;;0.67;0.00;;;;;24.34;41.99;100405.25;5075994;28;45637;-68
2021/10/05 11:01:45;;;;;;;;;0.00;0.00;;;;;24.36;42.30;100407.72;5075887;28;45214;-68
2021/10/05 11:04:12;;;;;;;;;0.33;0.00;;;;;24.35;42.28;100417.53;5075815;28;46335;-68
2021/10/05 11:06:38;;;;;;;;;0.00;0.00;;;;;24.36;42.39;100418.34;5059321;27;45412;-68
2021/10/05 11:09:06;;;;;;;;;0.00;0.00;;;;;24.35;42.53;100430.84;5077752;28;45333;-68
2021/10/05 11:11:41;;;;;;;;;0.00;0.00;;;;;24.35;41.94;100438.00;5075812;28;45709;-68
2021/10/05 11:14:10;;;;;;;;;0.00;0.00;;;;;24.34;42.23;100445.16;5075451;28;46207;-68
2021/10/05 11:16:37;;;;;;;;;0.00;0.00;;;;;24.33;42.19;100448.81;5075668;28;45285;-68
2021/10/05 11:19:12;;;;;;;;;0.33;0.00;;;;;24.32;42.53;100454.34;5075744;28;45305;-68
2021/10/05 11:21:40;;;;;;;;;0.00;0.00;;;;;24.26;42.33;100454.16;5059155;28;45517;-68
2021/10/05 11:24:06;;;;;;;;;0.33;0.33;;;;;24.32;42.26;100462.31;5073310;28;46893;-68